Time;durP1;ratioP1;P1;durP2;ratioP2;P2;SDS_P1;SDS_P2;PMS_P1;PMS_P2;Temp;Humidity;BMP_temperature;BMP_pressure;BME280_temperature;BME280_humidity;BME280_pressure;Samples;Min_cycle;Max_cycle;Signal;HPM_P1;HPM_P2
2022/12/02 00:11:36;;;;;;;132.47;35.67;;;;;;;;;;6166622;23;20208;-94
2022/12/02 00:14:41;;;;;;;128.30;37.07;;;;;;;;;;6169838;23;20168;-93
2022/12/02 00:17:46;;;;;;;139.90;39.37;;;;;;;;;;6170400;23;20156;-93
2022/12/02 00:20:51;;;;;;;136.20;36.20;;;;;;;;;;6170630;23;20177;-93
2022/12/02 00:23:57;;;;;;;132.00;37.67;;;;;;;;;;6175412;23;20156;-92
2022/12/02 00:27:04;;;;;;;151.93;38.57;;;;;;;;;;6175063;23;20214;-93
2022/12/02 00:30:12;;;;;;;134.50;37.10;;;;;;;;;;6177884;23;20189;-93
2022/12/02 00:33:18;;;;;;;126.93;36.23;;;;;;;;;;6176355;23;20191;-94
2022/12/02 00:36:23;;;;;;;132.73;35.83;;;;;;;;;;6174002;23;20168;-93
2022/12/02 00:39:28;;;;;;;123.70;34.90;;;;;;;;;;6174478;23;20152;-91
2022/12/02 00:42:35;;;;;;;131.67;36.87;;;;;;;;;;6173264;23;20152;-93
2022/12/02 00:49:06;;;;;;;126.70;35.17;;;;;;;;;;6172570;23;20169;-93
2022/12/02 00:52:11;;;;;;;111.10;33.80;;;;;;;;;;6171902;23;20224;-93
2022/12/02 00:55:17;;;;;;;112.77;33.50;;;;;;;;;;6173116;23;20173;-94
2022/12/02 00:58:24;;;;;;;114.50;32.63;;;;;;;;;;6171649;23;20291;-93
2022/12/02 01:01:30;;;;;;;104.43;30.07;;;;;;;;;;6173241;23;20169;-92
2022/12/02 01:04:35;;;;;;;100.13;30.83;;;;;;;;;;6173214;23;20216;-94
2022/12/02 01:07:41;;;;;;;101.83;31.13;;;;;;;;;;6172125;23;20156;-94
2022/12/02 01:10:46;;;;;;;107.97;31.10;;;;;;;;;;6172302;23;20236;-93
2022/12/02 01:13:54;;;;;;;104.63;30.40;;;;;;;;;;6174147;23;20173;-92
2022/12/02 01:17:00;;;;;;;104.00;31.17;;;;;;;;;;6172706;23;20217;-94
2022/12/02 01:20:07;;;;;;;104.40;31.43;;;;;;;;;;6176014;23;20165;-92
2022/12/02 01:23:15;;;;;;;107.57;31.90;;;;;;;;;;6175148;23;20192;-95
2022/12/02 01:26:24;;;;;;;108.23;30.83;;;;;;;;;;6177021;23;20169;-92
2022/12/02 01:29:32;;;;;;;103.50;31.03;;;;;;;;;;6173807;23;20172;-94
2022/12/02 01:32:40;;;;;;;93.83;29.00;;;;;;;;;;6172708;23;20197;-93
2022/12/02 01:35:46;;;;;;;101.87;30.47;;;;;;;;;;6173376;23;20149;-93
2022/12/02 01:38:51;;;;;;;105.23;31.60;;;;;;;;;;6172477;23;20188;-93
2022/12/02 01:41:56;;;;;;;103.00;30.37;;;;;;;;;;6173196;23;20153;-94
2022/12/02 01:45:02;;;;;;;101.40;31.40;;;;;;;;;;6173223;23;20172;-94
2022/12/02 01:48:08;;;;;;;100.20;31.23;;;;;;;;;;6172139;23;20173;-94
2022/12/02 01:51:13;;;;;;;101.13;30.80;;;;;;;;;;6173042;23;20183;-95
2022/12/02 01:54:19;;;;;;;97.60;31.63;;;;;;;;;;6172847;23;20168;-94
2022/12/02 01:57:27;;;;;;;97.00;30.03;;;;;;;;;;6172141;23;20172;-93
2022/12/02 02:00:34;;;;;;;95.60;30.67;;;;;;;;;;6173332;23;20169;-94
2022/12/02 02:03:39;;;;;;;99.03;30.80;;;;;;;;;;6171888;23;20176;-92
2022/12/02 02:06:47;;;;;;;98.37;31.87;;;;;;;;;;6172346;23;20165;-94
2022/12/02 02:09:54;;;;;;;103.90;31.23;;;;;;;;;;6169377;23;20522;-94
2022/12/02 02:12:59;;;;;;;94.73;30.23;;;;;;;;;;6170959;23;20191;-95
2022/12/02 02:16:06;;;;;;;98.33;31.43;;;;;;;;;;6170865;23;20148;-94
2022/12/02 02:19:13;;;;;;;99.67;31.17;;;;;;;;;;6171202;23;20494;-94
2022/12/02 02:22:20;;;;;;;103.60;31.37;;;;;;;;;;6170304;23;20173;-95
2022/12/02 02:25:27;;;;;;;102.13;30.60;;;;;;;;;;6171403;23;20616;-95
2022/12/02 02:28:32;;;;;;;103.77;31.20;;;;;;;;;;6169148;23;20168;-95
2022/12/02 02:31:39;;;;;;;95.10;31.27;;;;;;;;;;6170462;23;20152;-94
2022/12/02 02:34:44;;;;;;;102.37;30.30;;;;;;;;;;6170137;23;20180;-94
2022/12/02 02:37:51;;;;;;;93.53;30.67;;;;;;;;;;6169312;23;20181;-93
2022/12/02 02:40:58;;;;;;;101.80;30.53;;;;;;;;;;6171206;23;20148;-94
2022/12/02 02:44:04;;;;;;;96.13;29.70;;;;;;;;;;6169365;23;20535;-93
2022/12/02 02:47:09;;;;;;;97.20;30.73;;;;;;;;;;6170736;23;20184;-96
2022/12/02 02:50:15;;;;;;;99.20;30.77;;;;;;;;;;6171222;23;20165;-94
2022/12/02 02:53:21;;;;;;;103.50;30.87;;;;;;;;;;6172882;23;20200;-96
2022/12/02 02:56:29;;;;;;;100.73;30.23;;;;;;;;;;6172981;23;20160;-94
2022/12/02 02:59:43;;;;;;;98.53;30.90;;;;;;;;;;6172867;23;20613;-94
2022/12/02 03:02:50;;;;;;;99.70;29.23;;;;;;;;;;6173209;23;20184;-93
2022/12/02 03:05:56;;;;;;;101.03;29.57;;;;;;;;;;6174207;23;20188;-93
2022/12/02 03:09:04;;;;;;;98.40;30.43;;;;;;;;;;6172051;23;20168;-96
2022/12/02 03:12:12;;;;;;;101.70;30.00;;;;;;;;;;6204517;23;20246;-94
2022/12/02 03:15:17;;;;;;;95.27;30.73;;;;;;;;;;6185261;23;20500;-94
2022/12/02 03:18:23;;;;;;;96.77;28.60;;;;;;;;;;6142567;23;20208;-92
2022/12/02 03:21:29;;;;;;;101.83;30.23;;;;;;;;;;6204476;23;20217;-92
2022/12/02 03:24:36;;;;;;;94.17;29.17;;;;;;;;;;6203730;23;20222;-94
2022/12/02 03:27:44;;;;;;;114.80;30.97;;;;;;;;;;6203925;23;20215;-93
2022/12/02 03:30:49;;;;;;;110.67;31.00;;;;;;;;;;6203433;23;20163;-93
2022/12/02 03:33:55;;;;;;;108.97;31.83;;;;;;;;;;6201290;23;20255;-93
2022/12/02 03:37:00;;;;;;;116.73;32.47;;;;;;;;;;6202015;23;20158;-93
2022/12/02 03:40:07;;;;;;;107.80;30.60;;;;;;;;;;6201979;23;20168;-94
2022/12/02 03:43:15;;;;;;;107.87;31.70;;;;;;;;;;6200897;23;20207;-93
2022/12/02 03:50:40;;;;;;;108.87;29.77;;;;;;;;;;6201856;23;20668;-93
2022/12/02 03:53:46;;;;;;;108.97;31.83;;;;;;;;;;6200721;23;20195;-94
2022/12/02 03:56:51;;;;;;;104.23;30.10;;;;;;;;;;6201850;23;20155;-93
2022/12/02 03:59:58;;;;;;;112.87;31.03;;;;;;;;;;6201971;23;20163;-93
2022/12/02 04:03:04;;;;;;;100.93;29.40;;;;;;;;;;6202974;23;20156;-94
2022/12/02 04:06:09;;;;;;;104.30;32.27;;;;;;;;;;6203571;23;20172;-93
2022/12/02 04:09:15;;;;;;;106.13;30.83;;;;;;;;;;6203203;23;20254;-93
2022/12/02 04:12:20;;;;;;;101.83;28.87;;;;;;;;;;6201295;23;20172;-93
2022/12/02 04:15:27;;;;;;;101.47;30.97;;;;;;;;;;6201693;23;20167;-94
2022/12/02 04:18:33;;;;;;;99.67;30.00;;;;;;;;;;6186926;23;20172;-94
2022/12/02 04:21:38;;;;;;;99.03;30.47;;;;;;;;;;6186171;23;20188;-93
2022/12/02 04:24:42;;;;;;;97.60;29.57;;;;;;;;;;6186234;23;20256;-94
2022/12/02 04:27:47;;;;;;;102.03;30.97;;;;;;;;;;6184546;23;20164;-93
2022/12/02 04:30:54;;;;;;;97.50;29.37;;;;;;;;;;6187180;23;20598;-94
2022/12/02 04:33:59;;;;;;;107.43;31.60;;;;;;;;;;6186210;23;20199;-93
2022/12/02 04:37:04;;;;;;;97.10;28.10;;;;;;;;;;6186589;23;20172;-92
2022/12/02 04:40:09;;;;;;;95.43;29.73;;;;;;;;;;6185659;23;20164;-93
2022/12/02 04:43:15;;;;;;;100.13;30.43;;;;;;;;;;6185081;23;20168;-94
2022/12/02 04:46:21;;;;;;;91.93;29.10;;;;;;;;;;6187559;23;20175;-93
2022/12/02 04:49:27;;;;;;;95.47;28.93;;;;;;;;;;6184882;23;20179;-94
2022/12/02 04:52:32;;;;;;;97.80;28.57;;;;;;;;;;6185838;23;20156;-93
2022/12/02 04:55:37;;;;;;;93.47;29.03;;;;;;;;;;6183968;23;20168;-93
2022/12/02 04:58:43;;;;;;;86.90;27.27;;;;;;;;;;6184629;23;20188;-94
2022/12/02 05:06:11;;;;;;;85.97;27.77;;;;;;;;;;6204454;23;20593;-93
2022/12/02 05:09:20;;;;;;;97.27;28.90;;;;;;;;;;6186569;23;20168;-93
2022/12/02 05:12:25;;;;;;;89.83;27.90;;;;;;;;;;6186954;23;20168;-94
2022/12/02 05:15:31;;;;;;;93.53;28.60;;;;;;;;;;6185474;23;20211;-92
2022/12/02 05:18:36;;;;;;;93.37;28.63;;;;;;;;;;6202990;23;20171;-93
2022/12/02 05:21:42;;;;;;;87.33;27.83;;;;;;;;;;6185207;23;20167;-93
2022/12/02 05:24:47;;;;;;;91.73;27.07;;;;;;;;;;6183691;23;20168;-93
2022/12/02 05:27:57;;;;;;;97.13;28.40;;;;;;;;;;6185317;23;20172;-93
2022/12/02 05:31:02;;;;;;;92.37;27.77;;;;;;;;;;6184067;23;20667;-93
2022/12/02 05:34:08;;;;;;;90.97;29.57;;;;;;;;;;6184742;23;20268;-94
2022/12/02 05:37:16;;;;;;;89.60;27.03;;;;;;;;;;6184085;23;20168;-94
2022/12/02 05:40:21;;;;;;;89.87;27.17;;;;;;;;;;6184033;23;20172;-93
2022/12/02 05:43:27;;;;;;;83.63;28.40;;;;;;;;;;6183794;23;20171;-93
2022/12/02 05:46:33;;;;;;;84.17;26.23;;;;;;;;;;6184460;23;20160;-94
2022/12/02 05:49:40;;;;;;;93.60;28.03;;;;;;;;;;6186611;23;20180;-92
2022/12/02 05:52:48;;;;;;;89.87;27.60;;;;;;;;;;6186273;23;20196;-94
2022/12/02 05:55:55;;;;;;;83.97;26.47;;;;;;;;;;6186190;23;20191;-95
2022/12/02 05:59:02;;;;;;;76.57;26.23;;;;;;;;;;6184082;23;20168;-94
2022/12/02 06:02:12;;;;;;;82.33;24.87;;;;;;;;;;6186735;23;20176;-92
2022/12/02 06:05:19;;;;;;;82.10;26.60;;;;;;;;;;6186868;23;20204;-92
2022/12/02 06:08:31;;;;;;;79.47;27.00;;;;;;;;;;6186488;23;20197;-94
2022/12/02 06:15:58;;;;;;;79.33;25.00;;;;;;;;;;6204590;23;20202;-95
2022/12/02 06:19:10;;;;;;;74.87;25.23;;;;;;;;;;6193493;23;20195;-94
2022/12/02 06:22:18;;;;;;;80.60;25.33;;;;;;;;;;6172686;23;20296;-95
2022/12/02 06:25:28;;;;;;;75.47;24.03;;;;;;;;;;6175534;23;20219;-93
2022/12/02 06:28:41;;;;;;;81.70;24.20;;;;;;;;;;6089814;23;20251;-90
2022/12/02 06:31:49;;;;;;;82.77;25.40;;;;;;;;;;6074546;23;20171;-93
2022/12/02 06:38:16;;;;;;;77.50;23.60;;;;;;;;;;6059803;23;20239;-92
2022/12/02 06:41:36;;;;;;;78.70;23.97;;;;;;;;;;6057409;23;20205;-92
2022/12/02 06:48:17;;;;;;;83.47;24.80;;;;;;;;;;6075198;23;20248;-92
2022/12/02 06:51:23;;;;;;;80.67;23.53;;;;;;;;;;6056969;23;20156;-91
2022/12/02 06:54:29;;;;;;;70.33;22.83;;;;;;;;;;6058902;23;20248;-92
2022/12/02 06:57:35;;;;;;;83.57;24.30;;;;;;;;;;6057112;23;20158;-94
2022/12/02 07:09:36;;;;;;;77.87;24.33;;;;;;;;;;5956793;23;20215;-92
2022/12/02 07:12:44;;;;;;;73.73;24.40;;;;;;;;;;6059723;23;20171;-94
2022/12/02 07:15:49;;;;;;;76.17;24.23;;;;;;;;;;6058805;23;20178;-93
2022/12/02 07:18:55;;;;;;;82.47;26.03;;;;;;;;;;6060176;23;20172;-93
2022/12/02 07:22:00;;;;;;;84.77;25.77;;;;;;;;;;6058887;23;20260;-92
2022/12/02 07:25:24;;;;;;;75.03;24.93;;;;;;;;;;6058632;23;20195;-93
2022/12/02 07:28:33;;;;;;;83.97;27.77;;;;;;;;;;6085108;23;20213;-93
2022/12/02 07:31:43;;;;;;;82.53;26.03;;;;;;;;;;6157346;23;20149;-94
2022/12/02 07:34:49;;;;;;;81.90;25.23;;;;;;;;;;6161148;23;20186;-94
2022/12/02 07:37:56;;;;;;;85.00;26.43;;;;;;;;;;6159309;23;20173;-92
2022/12/02 07:41:03;;;;;;;85.23;27.40;;;;;;;;;;6159583;23;20255;-93
2022/12/02 07:44:09;;;;;;;90.87;26.63;;;;;;;;;;6158885;23;20542;-94
2022/12/02 07:51:34;;;;;;;97.03;27.77;;;;;;;;;;6176308;23;20202;-94
2022/12/02 07:54:39;;;;;;;87.13;27.57;;;;;;;;;;6156178;23;20195;-95
2022/12/02 07:57:46;;;;;;;96.80;28.97;;;;;;;;;;6159426;23;20168;-94
2022/12/02 08:05:35;;;;;;;92.90;30.17;;;;;;;;;;6057609;23;20265;-93
2022/12/02 08:08:40;;;;;;;104.23;30.57;;;;;;;;;;6134489;23;20192;-94
2022/12/02 08:11:46;;;;;;;105.07;31.87;;;;;;;;;;6159195;23;20220;-95
2022/12/02 08:14:52;;;;;;;106.33;32.13;;;;;;;;;;6156261;23;20184;-94
2022/12/02 08:17:58;;;;;;;97.20;30.13;;;;;;;;;;6158121;23;20160;-95
2022/12/02 08:21:04;;;;;;;100.47;30.80;;;;;;;;;;6158285;23;20216;-94
2022/12/02 08:24:10;;;;;;;97.00;30.20;;;;;;;;;;6159549;23;20156;-93
2022/12/02 23:57:46;;;;;;;68.93;23.20;;;;;;;;;;6164775;23;20204;-93
